createdAt,value
2018-10-21T00:01:05.182Z,32.43
2018-10-21T00:04:10.210Z,27.83
2018-10-21T00:07:15.280Z,32.07
2018-10-21T00:10:21.906Z,26.77
2018-10-21T00:13:26.922Z,30.70
2018-10-21T00:16:32.137Z,26.60
2018-10-21T00:19:37.125Z,25.83
2018-10-21T00:22:42.117Z,26.63
2018-10-21T00:25:47.178Z,21.47
2018-10-21T00:28:52.825Z,25.50
2018-10-21T00:32:00.016Z,23.80
2018-10-21T00:35:06.379Z,25.67
2018-10-21T00:38:11.368Z,23.23
2018-10-21T00:41:16.329Z,31.13
2018-10-21T00:44:21.322Z,34.03
2018-10-21T00:47:26.959Z,29.30
2018-10-21T00:50:32.015Z,28.90
2018-10-21T00:53:37.013Z,27.47
2018-10-21T00:56:43.574Z,29.37
2018-10-21T00:59:48.571Z,26.93
2018-10-21T01:02:53.581Z,30.53
2018-10-21T01:05:58.582Z,31.53
2018-10-21T01:09:10.351Z,29.53
2018-10-21T01:12:15.426Z,30.80
2018-10-21T01:15:20.434Z,29.37
2018-10-21T01:18:25.415Z,25.90
2018-10-21T01:21:30.466Z,27.87
2018-10-21T01:24:35.442Z,30.10
2018-10-21T01:27:41.266Z,32.63
2018-10-21T01:30:46.261Z,32.03
2018-10-21T01:33:51.394Z,32.63
2018-10-21T01:36:56.447Z,29.50
2018-10-21T01:40:40.612Z,28.20
2018-10-21T01:43:45.847Z,24.80
2018-10-21T01:46:50.827Z,29.70
2018-10-21T01:49:55.786Z,28.70
2018-10-21T01:53:01.952Z,27.93
2018-10-21T01:56:06.940Z,30.83
2018-10-21T01:59:11.939Z,35.10
2018-10-21T02:02:16.911Z,32.93
2018-10-21T02:05:22.198Z,27.97
2018-10-21T02:08:27.158Z,37.53
2018-10-21T02:11:32.125Z,31.40
2018-10-21T02:14:37.098Z,29.63
2018-10-21T02:17:42.222Z,28.43
2018-10-21T02:20:47.234Z,27.97
2018-10-21T02:23:52.219Z,28.57
2018-10-21T02:26:57.303Z,29.73
2018-10-21T02:30:02.383Z,28.37
2018-10-21T02:33:07.506Z,27.53
2018-10-21T02:36:12.489Z,26.57
2018-10-21T02:39:17.563Z,28.93
2018-10-21T02:42:22.984Z,28.27
2018-10-21T02:45:27.996Z,30.80
2018-10-21T02:48:32.993Z,28.27
2018-10-21T02:51:38.071Z,26.87
2018-10-21T02:54:43.995Z,25.03
2018-10-21T02:57:48.961Z,27.90
2018-10-21T03:00:54.633Z,27.77
2018-10-21T03:03:59.797Z,24.13
2018-10-21T03:07:04.990Z,32.47
2018-10-21T03:10:09.983Z,28.70
2018-10-21T03:13:14.941Z,32.80
2018-10-21T03:16:19.955Z,29.27
2018-10-21T03:19:28.045Z,23.20
2018-10-21T03:22:34.254Z,26.80
2018-10-21T03:25:39.915Z,37.03
2018-10-21T03:28:53.237Z,31.00
2018-10-21T03:31:58.628Z,24.90
2018-10-21T03:35:06.348Z,26.93
2018-10-21T03:38:11.744Z,23.53
2018-10-21T03:41:18.729Z,21.17
2018-10-21T03:44:24.146Z,26.63
2018-10-21T03:47:29.655Z,23.77
2018-10-21T03:50:38.932Z,22.40
2018-10-21T03:53:43.986Z,21.63
2018-10-21T03:56:48.984Z,22.50
2018-10-21T03:59:53.959Z,22.00
2018-10-21T04:02:58.934Z,29.67
2018-10-21T04:06:05.558Z,24.97
2018-10-21T04:09:13.257Z,28.50
2018-10-21T04:12:18.311Z,24.00
2018-10-21T04:15:23.326Z,20.50
2018-10-21T04:18:28.317Z,19.77
2018-10-21T04:21:33.449Z,20.77
2018-10-21T04:24:38.429Z,19.10
2018-10-21T04:27:43.443Z,19.10
2018-10-21T04:30:48.477Z,22.00
2018-10-21T04:33:53.492Z,20.23
2018-10-21T04:37:10.008Z,21.97
2018-10-21T04:40:19.962Z,22.20
2018-10-21T04:43:24.990Z,21.50
2018-10-21T04:46:30.004Z,20.73
2018-10-21T04:49:34.952Z,23.37
2018-10-21T04:52:39.942Z,20.50
2018-10-21T04:55:44.968Z,17.87
2018-10-21T04:58:49.952Z,23.80
2018-10-21T05:01:54.918Z,20.70
2018-10-21T05:05:00.095Z,21.03
2018-10-21T05:08:06.836Z,28.40
2018-10-21T05:14:58.571Z,55.97
2018-10-21T05:18:03.966Z,26.33
2018-10-21T05:21:08.929Z,26.93
2018-10-21T05:24:14.030Z,25.60
2018-10-21T05:27:18.990Z,25.93
2018-10-21T05:30:23.952Z,25.23
2018-10-21T05:33:28.920Z,22.50
2018-10-21T05:36:33.882Z,22.07
2018-10-21T05:39:38.850Z,21.67
2018-10-21T05:42:44.377Z,23.23
2018-10-21T05:45:49.345Z,22.73
2018-10-21T05:48:54.305Z,29.53
2018-10-21T05:51:59.281Z,33.27
2018-10-21T05:55:04.589Z,39.40
2018-10-21T05:58:09.544Z,34.37
2018-10-21T06:01:14.497Z,36.00
2018-10-21T06:04:19.485Z,40.60
2018-10-21T06:07:24.493Z,46.97
2018-10-21T06:10:29.598Z,36.20
2018-10-21T06:13:34.560Z,37.57
2018-10-21T06:16:49.554Z,38.40
2018-10-21T06:19:58.005Z,150.63
2018-10-21T06:23:03.029Z,107.10
2018-10-21T06:26:08.178Z,62.93
2018-10-21T06:29:13.207Z,67.83
2018-10-21T06:32:18.169Z,118.70
2018-10-21T06:35:23.163Z,94.50
2018-10-21T06:38:28.193Z,51.53
2018-10-21T06:41:35.115Z,30.17
2018-10-21T06:44:40.110Z,95.00
2018-10-21T06:47:45.116Z,90.47
2018-10-21T06:50:50.218Z,151.73
2018-10-21T06:53:55.258Z,51.97
2018-10-21T06:57:00.340Z,42.27
2018-10-21T07:00:06.792Z,42.30
2018-10-21T07:03:11.779Z,46.07
2018-10-21T07:06:18.906Z,47.13
2018-10-21T07:09:23.941Z,58.33
2018-10-21T07:12:28.949Z,36.80
2018-10-21T07:15:34.107Z,53.07
2018-10-21T07:18:41.922Z,88.43
2018-10-21T07:21:46.965Z,50.10
2018-10-21T07:24:53.128Z,55.70
2018-10-21T07:27:58.177Z,42.83
2018-10-21T07:31:03.366Z,30.53
2018-10-21T07:34:09.969Z,30.70
2018-10-21T07:37:15.109Z,25.63
2018-10-21T07:40:20.276Z,32.83
2018-10-21T07:43:25.301Z,27.37
2018-10-21T07:46:30.291Z,24.63
2018-10-21T07:49:35.370Z,27.80
2018-10-21T07:52:40.353Z,25.77
2018-10-21T07:55:45.407Z,25.37
2018-10-21T07:58:50.379Z,32.80
2018-10-21T08:01:55.343Z,39.63
2018-10-21T08:05:00.334Z,47.80
2018-10-21T08:08:16.347Z,63.83
2018-10-21T08:11:21.367Z,53.77
2018-10-21T08:14:26.530Z,54.80
2018-10-21T08:17:31.484Z,63.87
2018-10-21T08:23:48.721Z,39.23
2018-10-21T08:26:55.401Z,39.80
2018-10-21T08:30:00.487Z,51.20
2018-10-21T08:33:06.041Z,36.33
2018-10-21T08:36:11.062Z,66.23
2018-10-21T08:39:16.055Z,81.30
2018-10-21T08:42:21.027Z,58.13
2018-10-21T08:45:26.055Z,46.97
2018-10-21T08:48:31.050Z,49.93
2018-10-21T08:51:36.268Z,38.60
2018-10-21T08:54:41.241Z,89.93
2018-10-21T08:57:46.261Z,43.67
2018-10-21T09:00:51.291Z,25.37
2018-10-21T09:03:56.330Z,40.53
2018-10-21T09:07:01.608Z,41.30
2018-10-21T09:10:07.914Z,34.47
2018-10-21T09:13:13.007Z,29.23
2018-10-21T09:16:18.182Z,28.67
2018-10-21T09:19:23.105Z,20.97
2018-10-21T09:22:28.054Z,19.13
2018-10-21T09:25:33.025Z,23.30
2018-10-21T09:28:38.018Z,21.23
2018-10-21T09:31:42.974Z,19.63
2018-10-21T09:34:54.783Z,21.27
2018-10-21T09:37:59.784Z,25.53
2018-10-21T09:41:04.918Z,22.37
2018-10-21T09:44:11.802Z,17.70
2018-10-21T09:47:16.761Z,21.23
2018-10-21T09:50:21.810Z,18.17
2018-10-21T09:53:26.773Z,18.83
2018-10-21T09:56:31.795Z,18.73
2018-10-21T09:59:43.550Z,17.97
2018-10-21T10:02:54.243Z,17.67
2018-10-21T10:05:59.222Z,16.13
2018-10-21T10:09:07.168Z,17.30
2018-10-21T10:12:18.934Z,20.20
2018-10-21T10:15:24.090Z,16.30
2018-10-21T10:18:29.061Z,15.43
2018-10-21T10:21:34.573Z,21.67
2018-10-21T10:24:39.594Z,14.30
2018-10-21T10:27:44.601Z,12.93
2018-10-21T10:30:49.609Z,13.60
2018-10-21T10:33:54.636Z,19.97
2018-10-21T10:36:59.619Z,12.13
2018-10-21T10:40:06.025Z,20.17
2018-10-21T10:43:11.036Z,22.80
2018-10-21T10:46:16.037Z,14.03
2018-10-21T10:49:20.965Z,12.50
2018-10-21T10:52:26.704Z,13.23
2018-10-21T10:55:37.539Z,12.60
2018-10-21T10:58:42.516Z,14.60
2018-10-21T11:01:47.488Z,11.90
2018-10-21T11:04:54.227Z,16.67
2018-10-21T11:07:59.685Z,12.40
2018-10-21T11:11:04.899Z,8.60
2018-10-21T11:14:11.451Z,14.00
2018-10-21T11:17:16.505Z,14.13
2018-10-21T11:20:23.622Z,20.53
2018-10-21T11:23:30.676Z,19.87
2018-10-21T11:26:35.693Z,17.73
2018-10-21T11:29:40.724Z,13.17
2018-10-21T11:32:45.917Z,17.77
2018-10-21T11:35:51.035Z,10.30
2018-10-21T11:38:56.379Z,15.97
2018-10-21T11:42:01.391Z,14.03
2018-10-21T11:45:06.613Z,9.33
2018-10-21T11:48:11.621Z,9.57
2018-10-21T11:51:16.639Z,6.37
2018-10-21T11:54:21.643Z,4.73
2018-10-21T11:57:26.751Z,11.30
2018-10-21T12:00:31.824Z,17.90
2018-10-21T12:03:36.958Z,5.03
2018-10-21T12:06:42.018Z,7.33
2018-10-21T12:09:48.531Z,6.40
2018-10-21T12:14:57.173Z,4.37
2018-10-21T12:18:02.230Z,3.97
2018-10-21T12:21:07.297Z,5.70
2018-10-21T12:24:12.393Z,11.13
2018-10-21T12:27:17.447Z,4.03
2018-10-21T12:30:22.468Z,3.80
2018-10-21T12:33:27.619Z,3.27
2018-10-21T12:36:32.654Z,6.03
2018-10-21T12:39:38.064Z,4.53
2018-10-21T12:42:43.132Z,3.47
2018-10-21T12:45:48.430Z,4.30
2018-10-21T12:48:55.793Z,3.47
2018-10-21T12:52:00.803Z,3.73
2018-10-21T12:55:07.044Z,3.63
2018-10-21T12:58:12.152Z,4.60
2018-10-21T13:01:17.170Z,3.67
2018-10-21T13:04:22.941Z,5.10
2018-10-21T13:07:27.992Z,5.77
2018-10-21T13:10:33.031Z,4.17
2018-10-21T13:13:38.107Z,5.83
2018-10-21T13:16:43.136Z,7.43
2018-10-21T13:19:48.242Z,3.23
2018-10-21T13:22:53.264Z,7.30
2018-10-21T13:25:58.260Z,5.53
2018-10-21T13:29:03.315Z,7.00
2018-10-21T13:32:08.362Z,7.57
2018-10-21T13:35:13.378Z,5.10
2018-10-21T13:38:18.442Z,5.23
2018-10-21T13:41:26.773Z,6.33
2018-10-21T13:44:31.788Z,5.47
2018-10-21T13:47:36.796Z,4.60
2018-10-21T13:50:43.443Z,4.40
2018-10-21T13:53:48.430Z,5.00
2018-10-21T13:57:06.721Z,4.73
2018-10-21T14:00:11.913Z,5.57
2018-10-21T14:03:16.967Z,4.67
2018-10-21T14:06:21.999Z,4.90
2018-10-21T14:09:27.017Z,3.53
2018-10-21T14:12:32.130Z,3.70
2018-10-21T14:15:37.132Z,6.07
2018-10-21T14:18:42.320Z,15.23
2018-10-21T14:21:47.267Z,8.00
2018-10-21T14:24:52.306Z,5.70
2018-10-21T14:27:57.459Z,5.50
2018-10-21T14:31:02.974Z,6.70
2018-10-21T14:34:07.828Z,6.27
2018-10-21T14:37:13.161Z,7.63
2018-10-21T14:40:18.153Z,4.80
2018-10-21T14:43:23.155Z,5.70
2018-10-21T14:46:28.142Z,5.87
2018-10-21T14:49:33.874Z,5.03
2018-10-21T14:52:40.617Z,4.83
2018-10-21T14:55:47.609Z,7.70
2018-10-21T14:59:11.391Z,4.53
2018-10-21T15:02:16.539Z,4.20
2018-10-21T15:05:21.446Z,6.87
2018-10-21T15:08:26.490Z,13.20
2018-10-21T15:11:31.498Z,17.47
2018-10-21T15:14:36.600Z,5.37
2018-10-21T15:17:43.148Z,19.87
2018-10-21T15:20:48.173Z,18.10
2018-10-21T15:23:53.177Z,5.23
2018-10-21T15:26:58.466Z,5.73
2018-10-21T15:30:04.303Z,3.67
2018-10-21T15:33:09.222Z,8.47
2018-10-21T15:36:14.469Z,8.10
2018-10-21T15:39:19.780Z,5.70
2018-10-21T15:42:24.964Z,6.50
2018-10-21T15:45:29.952Z,5.23
2018-10-21T15:48:35.456Z,5.23
2018-10-21T15:51:40.529Z,4.87
2018-10-21T15:54:45.884Z,6.37
2018-10-21T15:57:50.969Z,23.73
2018-10-21T16:00:55.957Z,13.23
2018-10-21T16:04:01.057Z,40.23
2018-10-21T16:07:06.220Z,47.57
2018-10-21T16:10:11.289Z,25.97
2018-10-21T16:13:16.262Z,18.13
2018-10-21T16:16:21.342Z,12.80
2018-10-21T16:19:26.219Z,13.27
2018-10-21T16:22:31.189Z,24.97
2018-10-21T16:25:36.329Z,31.90
2018-10-21T16:28:41.254Z,36.80
2018-10-21T16:31:46.290Z,34.87
2018-10-21T16:34:51.223Z,35.23
2018-10-21T16:41:29.362Z,24.37
2018-10-21T16:44:34.533Z,22.27
2018-10-21T16:47:39.984Z,35.30
2018-10-21T16:50:45.025Z,42.70
2018-10-21T16:53:49.947Z,51.43
2018-10-21T16:56:54.941Z,39.57
2018-10-21T16:59:59.925Z,238.97
2018-10-21T17:03:05.338Z,89.43
2018-10-21T17:06:10.265Z,49.23
2018-10-21T17:09:15.256Z,73.43
2018-10-21T17:12:20.490Z,78.23
2018-10-21T17:15:25.608Z,53.83
2018-10-21T17:18:30.595Z,43.07
2018-10-21T17:21:35.570Z,43.10
2018-10-21T17:24:40.630Z,26.77
2018-10-21T17:27:45.622Z,20.80
2018-10-21T17:30:50.597Z,18.40
2018-10-21T17:33:55.578Z,30.67
2018-10-21T17:37:00.616Z,34.30
2018-10-21T17:40:06.777Z,37.07
2018-10-21T17:43:11.917Z,30.73
2018-10-21T17:46:16.902Z,30.97
2018-10-21T17:49:21.855Z,16.80
2018-10-21T17:52:26.935Z,16.97
2018-10-21T17:55:32.008Z,19.37
2018-10-21T17:58:37.077Z,17.03
2018-10-21T18:01:56.166Z,12.10
2018-10-21T18:05:01.648Z,12.90
2018-10-21T18:08:06.761Z,13.73
2018-10-21T18:11:11.815Z,31.37
2018-10-21T18:14:16.881Z,34.47
2018-10-21T18:17:22.245Z,21.77
2018-10-21T18:20:27.234Z,18.83
2018-10-21T18:23:32.299Z,17.63
2018-10-21T18:26:37.570Z,16.60
2018-10-21T18:29:42.558Z,18.77
2018-10-21T18:32:47.671Z,27.47
2018-10-21T18:35:52.714Z,18.53
2018-10-21T18:38:57.805Z,30.13
2018-10-21T18:42:03.045Z,14.80
2018-10-21T18:45:10.018Z,9.23
2018-10-21T18:48:15.108Z,12.27
2018-10-21T18:51:20.428Z,24.70
2018-10-21T18:54:25.471Z,12.40
2018-10-21T18:57:30.753Z,9.87
2018-10-21T19:00:35.781Z,11.20
2018-10-21T19:03:41.607Z,14.20
2018-10-21T19:06:46.850Z,12.43
2018-10-21T19:09:51.860Z,22.43
2018-10-21T19:13:00.054Z,14.23
2018-10-21T19:16:02.244Z,9.13
2018-10-21T19:19:07.311Z,10.23
2018-10-21T19:22:12.460Z,9.37
2018-10-21T19:25:17.600Z,11.13
2018-10-21T19:28:22.578Z,10.87
2018-10-21T19:31:27.626Z,6.70
2018-10-21T19:34:33.042Z,7.60
2018-10-21T19:37:39.072Z,7.30
2018-10-21T19:40:44.718Z,12.53
2018-10-21T19:43:49.967Z,11.37
2018-10-21T19:46:54.980Z,8.67
2018-10-21T19:50:00.082Z,9.83
2018-10-21T19:53:05.200Z,9.73
2018-10-21T19:56:10.200Z,6.20
2018-10-21T19:59:15.477Z,8.93
2018-10-21T20:02:20.544Z,5.13
2018-10-21T20:05:25.438Z,6.00
2018-10-21T20:08:30.441Z,6.57
2018-10-21T20:11:35.762Z,8.30
2018-10-21T20:14:40.926Z,6.97
2018-10-21T20:17:45.930Z,9.37
2018-10-21T20:20:50.936Z,10.40
2018-10-21T20:23:55.935Z,5.77
2018-10-21T20:27:00.926Z,7.30
2018-10-21T20:30:07.442Z,7.40
2018-10-21T20:33:12.465Z,7.90
2018-10-21T20:36:17.410Z,9.43
2018-10-21T20:39:22.406Z,6.57
2018-10-21T20:42:34.134Z,8.40
2018-10-21T20:45:39.142Z,9.00
2018-10-21T20:48:44.149Z,4.37
2018-10-21T20:51:49.203Z,9.97
2018-10-21T20:54:54.281Z,10.07
2018-10-21T20:57:59.458Z,10.37
2018-10-21T21:01:04.881Z,9.27
2018-10-21T21:04:10.079Z,11.83
2018-10-21T21:07:15.131Z,7.70
2018-10-21T21:10:20.209Z,8.10
2018-10-21T21:14:57.259Z,12.57
2018-10-21T21:18:02.654Z,10.20
2018-10-21T21:21:07.635Z,8.30
2018-10-21T21:24:12.713Z,8.13
2018-10-21T21:27:17.666Z,8.50
2018-10-21T21:30:22.671Z,9.30
2018-10-21T21:33:27.651Z,10.90
2018-10-21T21:36:34.417Z,9.93
2018-10-21T21:39:42.697Z,7.70
2018-10-21T21:42:47.677Z,7.47
2018-10-21T21:45:52.652Z,9.27
2018-10-21T21:48:57.648Z,7.27
2018-10-21T21:52:02.639Z,7.73
2018-10-21T21:55:07.679Z,8.33
2018-10-21T21:58:12.797Z,6.27
2018-10-21T22:01:25.393Z,6.87
2018-10-21T22:04:30.409Z,7.97
2018-10-21T22:07:36.008Z,6.53
2018-10-21T22:10:41.046Z,7.53
2018-10-21T22:13:46.065Z,6.40
2018-10-21T22:16:51.075Z,6.37
2018-10-21T22:19:56.121Z,6.30
2018-10-21T22:23:01.489Z,11.03
2018-10-21T22:26:06.554Z,8.70
2018-10-21T22:29:11.550Z,8.10
2018-10-21T22:32:16.571Z,10.83
2018-10-21T22:35:21.592Z,8.93
2018-10-21T22:38:37.739Z,6.70
2018-10-21T22:41:42.738Z,8.80
2018-10-21T22:44:47.705Z,8.60
2018-10-21T22:47:52.718Z,9.90
2018-10-21T22:50:57.733Z,6.33
2018-10-21T22:54:03.637Z,7.07
2018-10-21T22:57:14.231Z,9.13
2018-10-21T23:00:19.338Z,9.33
2018-10-21T23:03:24.354Z,7.33
2018-10-21T23:06:29.370Z,7.57
2018-10-21T23:09:34.369Z,10.67
2018-10-21T23:12:41.215Z,9.87
2018-10-21T23:15:46.233Z,9.13
2018-10-21T23:18:58.390Z,12.07
2018-10-21T23:22:04.336Z,11.47
2018-10-21T23:25:09.663Z,11.43
2018-10-21T23:28:15.114Z,9.87
2018-10-21T23:31:21.194Z,7.77
2018-10-21T23:34:26.761Z,9.60
2018-10-21T23:37:31.755Z,15.23
2018-10-21T23:40:36.741Z,10.93
2018-10-21T23:43:41.714Z,10.17
2018-10-21T23:46:55.571Z,9.63
2018-10-21T23:50:00.558Z,5.43
2018-10-21T23:53:05.542Z,8.50
2018-10-21T23:56:18.473Z,6.50
2018-10-21T23:59:23.463Z,7.23
